createdAt,value
2016-09-18T00:00:09.041Z,86.41
2016-09-18T00:01:09.682Z,86.69
2016-09-18T00:02:10.331Z,87.08
2016-09-18T00:03:10.968Z,86.79
2016-09-18T00:04:11.637Z,86.5
2016-09-18T00:05:12.264Z,86.69
2016-09-18T00:06:12.925Z,86.74
2016-09-18T00:07:13.631Z,86.84
2016-09-18T00:08:14.335Z,86.55
2016-09-18T00:09:15.041Z,86.74
2016-09-18T00:10:15.782Z,86.98
2016-09-18T00:11:16.483Z,87.23
2016-09-18T00:12:17.138Z,87.32
2016-09-18T00:13:17.787Z,87.32
2016-09-18T00:14:18.421Z,87.41
2016-09-18T00:15:19.948Z,87.8
2016-09-18T00:16:20.597Z,87.61
2016-09-18T00:17:21.243Z,87.9
2016-09-18T00:18:21.889Z,87.7
2016-09-18T00:19:22.534Z,88.18
2016-09-18T00:20:23.175Z,88.09
2016-09-18T00:21:23.822Z,88.09
2016-09-18T00:22:24.467Z,88.18
2016-09-18T00:23:29.092Z,87.99
2016-09-18T00:24:29.741Z,88.28
2016-09-18T00:25:30.406Z,88.85
2016-09-18T00:26:31.046Z,88.47
2016-09-18T00:27:31.696Z,88.76
2016-09-18T00:28:32.339Z,88.56
2016-09-18T00:29:33.005Z,88.85
2016-09-18T00:30:33.727Z,88.85
2016-09-18T00:31:34.364Z,88.76
2016-09-18T00:32:34.973Z,88.56
2016-09-18T00:33:35.639Z,88.66
2016-09-18T00:34:36.260Z,89.23
2016-09-18T00:35:36.920Z,89.04
2016-09-18T00:36:37.562Z,89.04
2016-09-18T00:37:38.196Z,89.52
2016-09-18T00:38:38.829Z,89.72
2016-09-18T00:39:39.530Z,90.39
2016-09-18T00:40:40.198Z,89.81
2016-09-18T00:41:40.847Z,90.39
2016-09-18T00:42:41.501Z,90.39
2016-09-18T00:43:42.166Z,90.67
2016-09-18T00:44:42.817Z,90.86
2016-09-18T00:45:43.453Z,91.15
2016-09-18T00:46:44.118Z,90.48
2016-09-18T00:47:44.795Z,90.29
2016-09-18T00:48:45.466Z,90.48
2016-09-18T00:49:46.133Z,91.44
2016-09-18T00:50:46.777Z,91.05
2016-09-18T00:51:47.431Z,91.3
2016-09-18T00:52:48.083Z,91.34
2016-09-18T00:53:48.741Z,90.91
2016-09-18T00:54:49.385Z,91.68
2016-09-18T00:55:50.028Z,91.15
2016-09-18T00:56:50.701Z,91.15
2016-09-18T00:57:51.361Z,91.15
2016-09-18T00:58:52.048Z,91.05
2016-09-18T00:59:52.699Z,91.05
2016-09-18T01:00:53.355Z,91.34
2016-09-18T01:01:54.003Z,91.34
2016-09-18T01:02:54.655Z,91.15
2016-09-18T01:03:55.305Z,91.05
2016-09-18T01:04:55.957Z,91.05
2016-09-18T01:05:56.591Z,90.96
2016-09-18T01:06:57.248Z,91.01
2016-09-18T01:07:57.919Z,91.2
2016-09-18T01:08:58.578Z,91.15
2016-09-18T01:09:59.218Z,91.25
2016-09-18T01:10:59.881Z,91.3
2016-09-18T01:12:00.545Z,91.49
2016-09-18T01:13:01.190Z,91.25
2016-09-18T01:14:01.839Z,91.44
2016-09-18T01:15:02.481Z,90.91
2016-09-18T01:16:03.142Z,90.91
2016-09-18T01:17:03.775Z,91.39
2016-09-18T01:18:04.433Z,91.01
2016-09-18T01:19:05.114Z,91.25
2016-09-18T01:20:05.745Z,90.96
2016-09-18T01:21:06.405Z,91.25
2016-09-18T01:22:07.042Z,91.11
2016-09-18T01:23:07.706Z,91.2
2016-09-18T01:24:08.358Z,90.86
2016-09-18T01:25:08.999Z,91.11
2016-09-18T01:26:09.642Z,90.91
2016-09-18T01:27:10.293Z,91.49
2016-09-18T01:28:10.957Z,90.91
2016-09-18T01:29:11.623Z,90.82
2016-09-18T01:30:12.258Z,90.91
2016-09-18T01:31:12.948Z,90.91
2016-09-18T01:32:13.615Z,91.01
2016-09-18T01:33:14.278Z,91.01
2016-09-18T01:34:14.947Z,91.01
2016-09-18T01:35:15.608Z,91.3
2016-09-18T01:36:16.259Z,91.01
2016-09-18T01:37:16.930Z,91.01
2016-09-18T01:38:17.602Z,90.72
2016-09-18T01:39:18.264Z,90.44
2016-09-18T01:40:18.919Z,91.11
2016-09-18T01:41:19.580Z,90.82
2016-09-18T01:42:20.221Z,90.91
2016-09-18T01:43:20.899Z,90.91
2016-09-18T01:44:21.531Z,90.63
2016-09-18T01:45:22.184Z,90.44
2016-09-18T01:46:22.821Z,90.24
2016-09-18T01:47:23.449Z,90.34
2016-09-18T01:48:24.087Z,90.24
2016-09-18T01:49:24.739Z,89.95
2016-09-18T01:50:25.388Z,90.34
2016-09-18T01:51:26.031Z,90.34
2016-09-18T01:52:26.705Z,89.86
2016-09-18T01:53:27.355Z,90.15
2016-09-18T01:54:28.004Z,90.53
2016-09-18T01:55:28.638Z,90.15
2016-09-18T01:56:29.279Z,90.15
2016-09-18T01:57:29.962Z,90.44
2016-09-18T01:58:30.622Z,90.44
2016-09-18T01:59:31.294Z,90.53
2016-09-18T02:00:31.949Z,90.24
2016-09-18T02:01:32.604Z,90.82
2016-09-18T02:02:33.254Z,90.34
2016-09-18T02:03:33.894Z,90.53
2016-09-18T02:04:34.560Z,91.2
2016-09-18T02:05:35.224Z,91.11
2016-09-18T02:06:35.862Z,91.01
2016-09-18T02:07:36.514Z,91.11
2016-09-18T02:08:37.164Z,90.53
2016-09-18T02:09:37.818Z,90.05
2016-09-18T02:10:38.455Z,90.15
2016-09-18T02:11:39.125Z,90.44
2016-09-18T02:12:39.781Z,90.34
2016-09-18T02:13:40.422Z,90.24
2016-09-18T02:14:41.079Z,90.34
2016-09-18T02:15:41.772Z,90.15
2016-09-18T02:16:42.475Z,90.24
2016-09-18T02:17:43.459Z,90.05
2016-09-18T02:18:44.075Z,90.44
2016-09-18T02:19:44.748Z,90.34
2016-09-18T02:20:45.399Z,91.2
2016-09-18T02:21:46.142Z,91.11
2016-09-18T02:22:46.772Z,91.01
2016-09-18T02:23:47.432Z,90.91
2016-09-18T02:24:48.068Z,91.11
2016-09-18T02:25:48.705Z,90.91
2016-09-18T02:26:49.353Z,91.01
2016-09-18T02:27:50.023Z,91.01
2016-09-18T02:28:50.676Z,91.3
2016-09-18T02:29:51.323Z,90.91
2016-09-18T02:30:51.983Z,91.3
2016-09-18T02:31:52.609Z,91.39
2016-09-18T02:32:53.247Z,91.49
2016-09-18T02:33:53.884Z,91.2
2016-09-18T02:34:54.535Z,90.91
2016-09-18T02:35:55.200Z,91.49
2016-09-18T02:36:55.835Z,91.01
2016-09-18T02:37:56.487Z,91.2
2016-09-18T02:38:57.175Z,92.06
2016-09-18T02:39:57.790Z,91.77
2016-09-18T02:40:58.469Z,91.87
2016-09-18T02:41:59.111Z,91.58
2016-09-18T02:42:59.755Z,91.87
2016-09-18T02:44:00.426Z,92.3
2016-09-18T02:45:01.102Z,92.25
2016-09-18T02:46:01.819Z,92.25
2016-09-18T02:47:02.445Z,92.16
2016-09-18T02:48:03.105Z,92.16
2016-09-18T02:49:03.739Z,92.11
2016-09-18T02:50:04.389Z,92.35
2016-09-18T02:51:05.079Z,92.16
2016-09-18T02:52:05.710Z,92.35
2016-09-18T02:53:06.353Z,92.4
2016-09-18T02:54:06.992Z,92.59
2016-09-18T02:55:07.646Z,92.54
2016-09-18T02:56:08.289Z,92.49
2016-09-18T02:57:08.952Z,92.44
2016-09-18T02:58:09.613Z,92.69
2016-09-18T02:59:10.256Z,92.63
2016-09-18T03:00:10.924Z,92.59
2016-09-18T03:01:11.600Z,92.69
2016-09-18T03:02:12.225Z,93.07
2016-09-18T03:03:12.889Z,92.97
2016-09-18T03:04:13.516Z,92.88
2016-09-18T03:05:14.156Z,93.16
2016-09-18T03:06:14.818Z,92.97
2016-09-18T03:07:15.483Z,92.88
2016-09-18T03:08:16.880Z,92.97
2016-09-18T03:09:17.164Z,92.88
2016-09-18T03:10:17.828Z,92.88
2016-09-18T03:11:18.464Z,92.59
2016-09-18T03:12:19.126Z,92.88
2016-09-18T03:13:19.787Z,92.97
2016-09-18T03:14:20.427Z,92.97
2016-09-18T03:15:21.079Z,93.26
2016-09-18T03:16:21.742Z,93.16
2016-09-18T03:17:22.381Z,93.07
2016-09-18T03:18:23.018Z,93.16
2016-09-18T03:19:23.652Z,92.78
2016-09-18T03:20:24.297Z,93.26
2016-09-18T03:21:24.948Z,93.35
2016-09-18T03:22:25.587Z,92.97
2016-09-18T03:23:26.226Z,93.16
2016-09-18T03:24:26.901Z,93.16
2016-09-18T03:25:27.557Z,93.64
2016-09-18T03:26:28.219Z,93.93
2016-09-18T03:27:28.853Z,93.64
2016-09-18T03:28:29.487Z,93.45
2016-09-18T03:29:30.123Z,93.16
2016-09-18T03:30:30.764Z,93.16
2016-09-18T03:31:31.401Z,93.55
2016-09-18T03:32:32.047Z,93.84
2016-09-18T03:33:32.689Z,93.45
2016-09-18T03:34:33.332Z,93.84
2016-09-18T03:35:33.978Z,93.45
2016-09-18T03:36:34.643Z,93.55
2016-09-18T03:37:35.291Z,93.74
2016-09-18T03:38:35.941Z,93.16
2016-09-18T03:39:36.580Z,93.74
2016-09-18T03:40:37.220Z,93.35
2016-09-18T03:41:37.902Z,92.97
2016-09-18T03:42:38.573Z,93.07
2016-09-18T03:43:39.209Z,93.26
2016-09-18T03:44:39.850Z,93.07
2016-09-18T03:45:40.510Z,93.16
2016-09-18T03:46:41.173Z,92.97
2016-09-18T03:47:41.831Z,92.88
2016-09-18T03:48:42.486Z,92.4
2016-09-18T03:49:43.138Z,92.49
2016-09-18T03:50:43.786Z,92.59
2016-09-18T03:51:44.427Z,92.49
2016-09-18T03:52:45.063Z,92.49
2016-09-18T03:53:45.712Z,92.49
2016-09-18T03:54:46.352Z,92.21
2016-09-18T03:55:46.984Z,92.4
2016-09-18T03:56:47.626Z,92.49
2016-09-18T03:57:48.270Z,92.4
2016-09-18T03:58:48.919Z,92.11
2016-09-18T03:59:49.561Z,92.02
2016-09-18T04:00:50.206Z,92.11
2016-09-18T04:01:50.839Z,92.4
2016-09-18T04:02:51.490Z,92.4
2016-09-18T04:03:52.135Z,92.59
2016-09-18T04:04:52.781Z,92.49
2016-09-18T04:05:53.438Z,92.4
2016-09-18T04:06:54.093Z,92.3
2016-09-18T04:07:54.739Z,91.92
2016-09-18T04:08:55.394Z,92.49
2016-09-18T04:09:56.027Z,92.3
2016-09-18T04:10:56.668Z,92.21
2016-09-18T04:11:57.308Z,92.59
2016-09-18T04:12:57.956Z,92.59
2016-09-18T04:13:58.592Z,92.4
2016-09-18T04:14:59.248Z,92.78
2016-09-18T04:15:59.899Z,93.07
2016-09-18T04:17:00.573Z,93.26
2016-09-18T04:18:01.220Z,93.07
2016-09-18T04:19:01.858Z,92.88
2016-09-18T04:20:02.486Z,92.88
2016-09-18T04:21:03.150Z,92.78
2016-09-18T04:22:03.807Z,92.78
2016-09-18T04:23:04.438Z,92.88
2016-09-18T04:24:05.095Z,93.16
2016-09-18T04:25:05.737Z,93.35
2016-09-18T04:26:06.393Z,93.07
2016-09-18T04:27:07.071Z,93.26
2016-09-18T04:28:07.743Z,92.97
2016-09-18T04:29:08.419Z,93.16
2016-09-18T04:30:09.073Z,93.55
2016-09-18T04:31:09.769Z,92.97
2016-09-18T04:32:10.429Z,93.26
2016-09-18T04:33:11.058Z,93.07
2016-09-18T04:34:11.732Z,93.16
2016-09-18T04:35:12.518Z,93.45
2016-09-18T04:36:13.168Z,93.55
2016-09-18T04:37:13.802Z,93.55
2016-09-18T04:38:14.465Z,93.55
2016-09-18T04:39:15.116Z,93.35
2016-09-18T04:40:15.760Z,93.45
2016-09-18T04:41:16.427Z,93.55
2016-09-18T04:42:17.061Z,94.17
2016-09-18T04:43:17.706Z,94.31
2016-09-18T04:44:18.351Z,94.46
2016-09-18T04:45:19.016Z,94.6
2016-09-18T04:46:19.698Z,94.36
2016-09-18T04:47:20.350Z,94.26
2016-09-18T04:48:20.985Z,94.26
2016-09-18T04:49:21.645Z,94.26
2016-09-18T04:50:22.284Z,94.74
2016-09-18T04:51:22.939Z,94.7
2016-09-18T04:52:23.582Z,94.84
2016-09-18T04:53:24.221Z,94.93
2016-09-18T04:54:24.852Z,94.84
2016-09-18T04:55:25.510Z,94.93
2016-09-18T04:56:26.151Z,95.12
2016-09-18T04:57:26.814Z,95.32
2016-09-18T04:58:27.475Z,95.12
2016-09-18T04:59:28.127Z,95.22
2016-09-18T05:00:28.790Z,95.12
2016-09-18T05:01:29.423Z,95.22
2016-09-18T05:02:30.081Z,94.84
2016-09-18T05:03:30.726Z,95.22
2016-09-18T05:04:31.372Z,95.22
2016-09-18T05:05:32.036Z,94.84
2016-09-18T05:06:32.704Z,94.84
2016-09-18T05:07:33.339Z,94.84
2016-09-18T05:08:33.970Z,94.84
2016-09-18T05:09:34.614Z,94.84
2016-09-18T05:10:35.249Z,95.03
2016-09-18T05:11:35.885Z,94.84
2016-09-18T05:12:36.528Z,94.55
2016-09-18T05:13:37.212Z,94.74
2016-09-18T05:14:37.865Z,95.03
2016-09-18T05:15:38.531Z,95.03
2016-09-18T05:16:39.186Z,95.03
2016-09-18T05:17:39.830Z,95.22
2016-09-18T05:18:40.488Z,95.22
2016-09-18T05:19:41.154Z,95.22
2016-09-18T05:20:41.787Z,95.32
2016-09-18T05:21:42.446Z,95.22
2016-09-18T05:22:43.110Z,94.84
2016-09-18T05:23:43.762Z,95.12
2016-09-18T05:24:44.414Z,94.55
2016-09-18T05:25:45.090Z,94.84
2016-09-18T05:26:45.738Z,94.84
2016-09-18T05:27:46.381Z,94.74
2016-09-18T05:28:47.026Z,94.36
2016-09-18T05:29:47.693Z,94.26
2016-09-18T05:30:48.314Z,94.46
2016-09-18T05:31:48.973Z,94.36
2016-09-18T05:32:49.617Z,94.55
2016-09-18T05:33:50.269Z,94.36
2016-09-18T05:34:50.904Z,93.98
2016-09-18T05:35:51.572Z,93.5
2016-09-18T05:36:52.246Z,93.98
2016-09-18T05:37:52.913Z,94.07
2016-09-18T05:38:53.584Z,94.07
2016-09-18T05:39:54.221Z,93.88
2016-09-18T05:40:54.878Z,93.5
2016-09-18T05:41:55.540Z,93.69
2016-09-18T05:42:56.181Z,93.31
2016-09-18T05:43:56.846Z,93.6
2016-09-18T05:44:57.513Z,93.88
2016-09-18T05:45:58.158Z,93.69
2016-09-18T05:46:58.835Z,93.79
2016-09-18T05:47:59.477Z,93.6
2016-09-18T05:49:00.118Z,93.5
2016-09-18T05:50:00.775Z,93.6
2016-09-18T05:51:01.442Z,93.4
2016-09-18T05:52:02.117Z,93.69
2016-09-18T05:53:02.796Z,93.5
2016-09-18T05:54:03.451Z,93.5
2016-09-18T05:55:04.091Z,92.93
2016-09-18T05:56:04.755Z,92.93
2016-09-18T05:57:05.401Z,92.93
2016-09-18T05:58:06.049Z,92.64
2016-09-18T05:59:06.688Z,92.54
2016-09-18T06:00:07.348Z,92.25
2016-09-18T06:01:08.015Z,92.3
2016-09-18T06:02:08.655Z,92.4
2016-09-18T06:03:09.320Z,92.02
2016-09-18T06:04:09.955Z,92.11
2016-09-18T06:05:10.613Z,92.02
2016-09-18T06:06:11.277Z,92.21
2016-09-18T06:07:11.905Z,92.21
2016-09-18T06:08:12.573Z,91.35
2016-09-18T06:09:13.240Z,91.63
2016-09-18T06:10:13.925Z,91.53
2016-09-18T06:11:14.589Z,91.63
2016-09-18T06:12:15.259Z,91.44
2016-09-18T06:13:15.941Z,91.35
2016-09-18T06:14:16.603Z,91.16
2016-09-18T06:15:17.272Z,90.96
2016-09-18T06:16:17.952Z,90.87
2016-09-18T06:17:18.720Z,90.96
2016-09-18T06:18:19.398Z,90.87
2016-09-18T06:19:20.066Z,90.87
2016-09-18T06:20:20.730Z,91.06
2016-09-18T06:21:21.365Z,90.3
2016-09-18T06:22:22.017Z,90.39
2016-09-18T06:23:22.659Z,90.3
2016-09-18T06:24:23.338Z,90.48
2016-09-18T06:25:23.992Z,90.58
2016-09-18T06:26:24.670Z,90.48
2016-09-18T06:27:25.328Z,90.58
2016-09-18T06:28:25.971Z,90.2
2016-09-18T06:29:26.631Z,90.24
2016-09-18T06:30:27.308Z,89.19
2016-09-18T06:31:27.932Z,89.19
2016-09-18T06:32:28.601Z,88.9
2016-09-18T06:33:29.254Z,89.48
2016-09-18T06:34:29.897Z,89.29
2016-09-18T06:35:30.542Z,89.29
2016-09-18T06:36:31.181Z,89.19
2016-09-18T06:37:31.841Z,88.9
2016-09-18T06:38:32.532Z,89.09
2016-09-18T06:39:33.186Z,89.09
2016-09-18T06:40:33.844Z,89
2016-09-18T06:41:34.496Z,88.62
2016-09-18T06:42:35.151Z,86.27
2016-09-18T06:43:35.793Z,85.54
2016-09-18T06:44:36.448Z,83.29
2016-09-18T06:45:37.118Z,81.22
2016-09-18T06:46:37.771Z,79.14
2016-09-18T06:47:38.429Z,78.03
2016-09-18T06:48:39.085Z,76.25
2016-09-18T06:49:39.752Z,75.1
2016-09-18T06:50:40.433Z,76.07
2016-09-18T06:51:41.084Z,77.51
2016-09-18T06:52:41.732Z,77.13
2016-09-18T06:53:42.390Z,75.38
2016-09-18T06:54:43.057Z,73.94
2016-09-18T06:55:43.703Z,75.54
2016-09-18T06:56:44.377Z,76.65
2016-09-18T06:57:45.040Z,77.04
2016-09-18T06:58:45.722Z,76.12
2016-09-18T06:59:46.384Z,75.73
2016-09-18T07:00:47.060Z,76.31
2016-09-18T07:01:47.703Z,75.67
2016-09-18T07:02:48.354Z,73.56
2016-09-18T07:03:49.013Z,73.72
2016-09-18T07:04:49.679Z,74.87
2016-09-18T07:05:50.361Z,73.94
2016-09-18T07:06:51.018Z,73.18
2016-09-18T07:07:51.670Z,73.56
2016-09-18T07:08:52.320Z,71.96
2016-09-18T07:09:53.016Z,70.72
2016-09-18T07:10:53.669Z,70.81
2016-09-18T07:11:54.337Z,70.81
2016-09-18T07:12:54.994Z,70.62
2016-09-18T07:13:55.653Z,69.6
2016-09-18T07:14:56.308Z,69.4
2016-09-18T07:15:56.974Z,68.73
2016-09-18T07:16:57.660Z,67.96
2016-09-18T07:17:58.319Z,68.06
2016-09-18T07:18:58.997Z,67.58
2016-09-18T07:19:59.668Z,67.68
2016-09-18T07:21:00.335Z,68.25
2016-09-18T07:22:00.996Z,70.58
2016-09-18T07:23:01.676Z,70.1
2016-09-18T07:24:02.403Z,71.98
2016-09-18T07:25:03.070Z,72.08
2016-09-18T07:26:03.753Z,71.95
2016-09-18T07:27:04.427Z,72.18
2016-09-18T07:28:05.085Z,71.16
2016-09-18T07:29:05.755Z,71.16
2016-09-18T07:30:06.457Z,69.62
2016-09-18T07:31:07.119Z,67.99
2016-09-18T07:32:07.779Z,68.95
2016-09-18T07:33:08.450Z,68.85
2016-09-18T07:34:09.127Z,67.25
2016-09-18T07:35:09.791Z,66.68
2016-09-18T07:36:10.452Z,67.54
2016-09-18T07:37:11.165Z,66.64
2016-09-18T07:38:11.819Z,66.87
2016-09-18T07:39:12.481Z,66.2
2016-09-18T07:40:13.141Z,65.17
2016-09-18T07:41:13.786Z,65.56
2016-09-18T07:42:14.441Z,65.08
2016-09-18T07:43:15.113Z,63.38
2016-09-18T07:44:15.794Z,62.23
2016-09-18T07:45:16.448Z,61.91
2016-09-18T07:46:17.112Z,61.55
2016-09-18T07:47:17.751Z,60.3
2016-09-18T07:48:18.447Z,60.49
2016-09-18T07:49:19.094Z,60.37
2016-09-18T07:50:19.775Z,60.75
2016-09-18T07:51:20.444Z,60.94
2016-09-18T07:52:21.113Z,61.3
2016-09-18T07:53:21.792Z,61.87
2016-09-18T07:54:22.460Z,61.87
2016-09-18T07:55:23.112Z,62.16
2016-09-18T07:56:24.076Z,60.17
2016-09-18T07:57:24.471Z,60.82
2016-09-18T07:58:25.114Z,60.46
2016-09-18T07:59:25.767Z,59.72
2016-09-18T08:00:26.588Z,60.91
2016-09-18T08:01:27.261Z,60.63
2016-09-18T08:02:28.994Z,61.2
2016-09-18T08:03:29.668Z,60.63
2016-09-18T08:04:30.315Z,60.82
2016-09-18T08:05:30.984Z,61.11
2016-09-18T08:06:31.663Z,61.01
2016-09-18T08:07:32.342Z,62.32
2016-09-18T08:08:32.999Z,61.94
2016-09-18T08:09:33.662Z,61.87
2016-09-18T08:10:34.334Z,61.55
2016-09-18T08:11:35.012Z,61.36
2016-09-18T08:12:35.686Z,62.23
2016-09-18T08:13:36.384Z,61.84
2016-09-18T08:14:37.039Z,60.82
2016-09-18T08:15:37.742Z,60.05
2016-09-18T08:16:38.421Z,60.05
2016-09-18T08:17:39.096Z,59.95
2016-09-18T08:18:39.765Z,59.95
2016-09-18T08:19:40.435Z,59.57
2016-09-18T08:20:41.101Z,58.42
2016-09-18T08:21:41.751Z,57.97
2016-09-18T08:22:42.454Z,57.97
2016-09-18T08:23:43.132Z,57.29
2016-09-18T08:24:43.800Z,57.68
2016-09-18T08:25:44.481Z,58.51
2016-09-18T08:26:45.184Z,59.47
2016-09-18T08:27:45.857Z,58.32
2016-09-18T08:28:46.541Z,58.7
2016-09-18T08:29:47.208Z,59.16
2016-09-18T08:30:47.880Z,59.34
2016-09-18T08:31:48.543Z,59.54
2016-09-18T08:32:49.223Z,60.02
2016-09-18T08:33:49.931Z,59.06
2016-09-18T08:34:51.401Z,59.16
2016-09-18T08:35:52.086Z,59.25
2016-09-18T08:36:52.747Z,59.34
2016-09-18T08:37:53.415Z,59.44
2016-09-18T08:38:54.065Z,59.25
2016-09-18T08:39:54.745Z,58.67
2016-09-18T08:40:55.434Z,58.96
2016-09-18T08:41:56.098Z,58.67
2016-09-18T08:42:56.751Z,57.71
2016-09-18T08:43:57.419Z,57.26
2016-09-18T08:44:58.094Z,57.45
2016-09-18T08:45:58.761Z,57.75
2016-09-18T08:46:59.464Z,57.81
2016-09-18T08:48:00.118Z,56.76
2016-09-18T08:49:00.793Z,56.18
2016-09-18T08:50:01.468Z,56.18
2016-09-18T08:51:02.133Z,55.91
2016-09-18T08:52:02.802Z,55.15
2016-09-18T08:53:03.473Z,55.46
2016-09-18T08:54:04.136Z,55.08
2016-09-18T08:55:04.797Z,54.69
2016-09-18T08:56:05.486Z,54.5
2016-09-18T08:57:06.157Z,53.45
2016-09-18T08:58:06.862Z,52.29
2016-09-18T08:59:07.526Z,52.94
2016-09-18T09:00:08.195Z,52.97
2016-09-18T09:01:08.863Z,52.65
2016-09-18T09:02:09.539Z,52.94
2016-09-18T09:03:10.194Z,53.13
2016-09-18T09:04:10.870Z,52.94
2016-09-18T09:05:11.540Z,52.75
2016-09-18T09:06:12.217Z,53.68
2016-09-18T09:07:12.891Z,54.74
2016-09-18T09:08:13.567Z,54.64
2016-09-18T09:09:14.239Z,55.22
2016-09-18T09:10:14.903Z,54.83
2016-09-18T09:11:15.572Z,55.32
2016-09-18T09:12:16.226Z,55.32
2016-09-18T09:13:16.903Z,55.41
2016-09-18T09:14:17.582Z,55.99
2016-09-18T09:15:18.252Z,55.29
2016-09-18T09:16:18.936Z,55.29
2016-09-18T09:17:19.606Z,55.96
2016-09-18T09:18:20.270Z,55.67
2016-09-18T09:19:20.977Z,55.86
2016-09-18T09:20:21.683Z,56.34
2016-09-18T09:21:22.379Z,56.73
2016-09-18T09:22:23.015Z,56.63
2016-09-18T09:23:23.698Z,56.31
2016-09-18T09:24:24.368Z,57.3
2016-09-18T09:25:25.080Z,56.44
2016-09-18T09:26:25.688Z,56.92
2016-09-18T09:27:26.348Z,55.96
2016-09-18T09:28:27.005Z,55.86
2016-09-18T09:29:27.670Z,55.77
2016-09-18T09:30:28.341Z,56.24
2016-09-18T09:31:29.001Z,56.34
2016-09-18T09:32:29.671Z,55.77
2016-09-18T09:33:30.319Z,56.24
2016-09-18T09:34:31.048Z,55.29
2016-09-18T09:35:31.756Z,55.1
2016-09-18T09:36:32.387Z,55.69
2016-09-18T09:37:33.032Z,55.12
2016-09-18T09:38:33.687Z,55.12
2016-09-18T09:39:34.350Z,54.9
2016-09-18T09:40:35.026Z,54.83
2016-09-18T09:41:35.691Z,55.22
2016-09-18T09:42:36.345Z,54.45
2016-09-18T09:43:37.013Z,54.83
2016-09-18T09:44:37.663Z,55.02
2016-09-18T09:45:38.339Z,54.74
2016-09-18T09:46:39.006Z,54.74
2016-09-18T09:47:39.675Z,55.22
2016-09-18T09:48:40.319Z,54.86
2016-09-18T09:49:40.967Z,54.55
2016-09-18T09:50:41.665Z,54.28
2016-09-18T09:51:42.347Z,54.16
2016-09-18T09:52:42.996Z,54.83
2016-09-18T09:53:43.673Z,54.35
2016-09-18T09:54:44.327Z,54.93
2016-09-18T09:55:44.973Z,55.02
2016-09-18T09:56:45.623Z,54.25
2016-09-18T09:57:46.273Z,54.35
2016-09-18T09:58:46.936Z,54.93
2016-09-18T09:59:47.586Z,55.51
2016-09-18T10:00:48.253Z,55.79
2016-09-18T10:01:48.901Z,55.69
2016-09-18T10:02:49.555Z,55.79
2016-09-18T10:03:50.199Z,55.79
2016-09-18T10:04:50.859Z,55.57
2016-09-18T10:05:51.529Z,56.05
2016-09-18T10:06:52.182Z,56.27
2016-09-18T10:07:52.828Z,56.05
2016-09-18T10:08:53.471Z,55.96
2016-09-18T10:09:54.123Z,56.15
2016-09-18T10:10:54.825Z,55.96
2016-09-18T10:11:55.496Z,56.24
2016-09-18T10:12:56.144Z,56.44
2016-09-18T10:13:56.795Z,56.92
2016-09-18T10:14:57.444Z,56.92
2016-09-18T10:15:58.111Z,57.11
2016-09-18T10:16:58.754Z,57.4
2016-09-18T10:17:59.402Z,57.01
2016-09-18T10:19:00.062Z,57.3
2016-09-18T10:20:00.725Z,57.68
2016-09-18T10:21:01.404Z,57.3
2016-09-18T10:22:02.093Z,57.52
2016-09-18T10:23:02.750Z,57.23
2016-09-18T10:24:03.408Z,57.4
2016-09-18T10:25:04.060Z,57.78
2016-09-18T10:26:04.718Z,57.59
2016-09-18T10:27:05.381Z,57.78
2016-09-18T10:28:06.096Z,58.04
2016-09-18T10:29:06.744Z,58.23
2016-09-18T10:30:07.410Z,57.97
2016-09-18T10:31:08.094Z,58.04
2016-09-18T10:32:08.751Z,58.42
2016-09-18T10:33:09.439Z,58.33
2016-09-18T10:34:10.098Z,58.74
2016-09-18T10:35:10.757Z,58.84
2016-09-18T10:36:11.402Z,58.55
2016-09-18T10:37:12.102Z,58.94
2016-09-18T10:38:12.750Z,58.64
2016-09-18T10:39:13.402Z,58.36
2016-09-18T10:40:14.053Z,58.64
2016-09-18T10:41:14.777Z,58.45
2016-09-18T10:42:15.475Z,58.84
2016-09-18T10:43:16.149Z,58.17
2016-09-18T10:44:16.815Z,57.88
2016-09-18T10:45:17.457Z,57.81
2016-09-18T10:46:18.114Z,58.26
2016-09-18T10:47:18.777Z,57.97
2016-09-18T10:48:19.432Z,57.88
2016-09-18T10:49:20.076Z,58.55
2016-09-18T10:50:20.751Z,58.84
2016-09-18T10:51:21.416Z,58.64
2016-09-18T10:52:22.099Z,59.22
2016-09-18T10:53:22.768Z,59.22
2016-09-18T10:54:23.448Z,58.36
2016-09-18T10:55:24.111Z,57.88
2016-09-18T10:56:24.757Z,57.97
2016-09-18T10:57:25.406Z,57.88
2016-09-18T10:58:26.073Z,56.92
2016-09-18T10:59:26.738Z,56.73
2016-09-18T11:00:27.414Z,57.4
2016-09-18T11:01:28.088Z,57.4
2016-09-18T11:02:28.734Z,57.88
2016-09-18T11:03:29.380Z,56.92
2016-09-18T11:04:30.028Z,57.5
2016-09-18T11:05:30.695Z,57.5
2016-09-18T11:06:31.349Z,58.07
2016-09-18T11:07:32.014Z,57.97
2016-09-18T11:08:32.700Z,57.97
2016-09-18T11:09:33.358Z,57.97
2016-09-18T11:10:34.044Z,58.55
2016-09-18T11:11:34.711Z,59.03
2016-09-18T11:12:35.381Z,57.88
2016-09-18T11:13:36.068Z,57.5
2016-09-18T11:14:36.729Z,57.3
2016-09-18T11:15:37.393Z,57.28
2016-09-18T11:16:38.039Z,57.46
2016-09-18T11:17:38.699Z,57.75
2016-09-18T11:18:39.351Z,57.21
2016-09-18T11:19:40.040Z,56.98
2016-09-18T11:20:40.702Z,56.7
2016-09-18T11:21:41.341Z,56.89
2016-09-18T11:22:42.008Z,56.79
2016-09-18T11:23:42.684Z,57.18
2016-09-18T11:24:43.347Z,57.08
2016-09-18T11:25:44.041Z,57.08
2016-09-18T11:26:44.701Z,57.65
2016-09-18T11:27:45.361Z,57.37
2016-09-18T11:28:46.051Z,57.97
2016-09-18T11:29:46.707Z,58.17
2016-09-18T11:30:47.391Z,58.07
2016-09-18T11:31:48.038Z,57.85
2016-09-18T11:32:48.688Z,57.95
2016-09-18T11:33:49.335Z,57.5
2016-09-18T11:34:49.984Z,57.85
2016-09-18T11:35:50.641Z,57.95
2016-09-18T11:36:51.313Z,58.14
2016-09-18T11:37:51.965Z,58.17
2016-09-18T11:38:52.610Z,58.04
2016-09-18T11:39:53.265Z,58.23
2016-09-18T11:40:53.952Z,58.14
2016-09-18T11:41:54.621Z,57.46
2016-09-18T11:42:55.276Z,57.85
2016-09-18T11:43:55.927Z,58.04
2016-09-18T11:44:56.588Z,58.36
2016-09-18T11:45:57.248Z,57.21
2016-09-18T11:46:57.917Z,56.44
2016-09-18T11:47:58.606Z,57.08
2016-09-18T11:48:59.290Z,56.89
2016-09-18T11:49:59.960Z,56.79
2016-09-18T11:51:00.638Z,57.37
2016-09-18T11:52:01.299Z,57.37
2016-09-18T11:53:01.968Z,57.21
2016-09-18T11:54:02.615Z,57.59
2016-09-18T11:55:03.274Z,57.11
2016-09-18T11:56:03.991Z,57.37
2016-09-18T11:57:04.664Z,57.3
2016-09-18T11:58:05.335Z,57.3
2016-09-18T11:59:06.012Z,57.4
2016-09-18T12:00:06.671Z,57.3
2016-09-18T12:01:07.343Z,58.17
2016-09-18T12:02:08.029Z,58.07
2016-09-18T12:03:08.705Z,58.74
2016-09-18T12:04:09.380Z,58.36
2016-09-18T12:05:10.053Z,58.45
2016-09-18T12:06:10.714Z,59.06
2016-09-18T12:07:11.368Z,59.32
2016-09-18T12:08:12.015Z,59.51
2016-09-18T12:09:12.691Z,59.12
2016-09-18T12:10:13.363Z,59.12
2016-09-18T12:11:14.036Z,58.74
2016-09-18T12:12:14.743Z,59.51
2016-09-18T12:13:15.429Z,58.84
2016-09-18T12:14:16.113Z,58.84
2016-09-18T12:15:16.768Z,58.26
2016-09-18T12:16:17.427Z,57.88
2016-09-18T12:17:18.080Z,57.97
2016-09-18T12:18:18.747Z,57.97
2016-09-18T12:19:19.410Z,57.88
2016-09-18T12:20:20.085Z,58.17
2016-09-18T12:21:20.755Z,57.11
2016-09-18T12:22:21.425Z,57.11
2016-09-18T12:23:22.118Z,57.01
2016-09-18T12:24:22.768Z,57.59
2016-09-18T12:25:23.444Z,57.5
2016-09-18T12:26:24.108Z,57.3
2016-09-18T12:27:24.776Z,57.5
2016-09-18T12:28:25.436Z,58.26
2016-09-18T12:29:26.103Z,58.07
2016-09-18T12:30:26.762Z,57.43
2016-09-18T12:31:27.426Z,57.97
2016-09-18T12:32:28.067Z,58.26
2016-09-18T12:33:28.775Z,58.17
2016-09-18T12:34:29.433Z,58.26
2016-09-18T12:35:30.105Z,58.45
2016-09-18T12:36:30.768Z,58.64
2016-09-18T12:37:31.416Z,58.29
2016-09-18T12:38:32.084Z,57.52
2016-09-18T12:39:32.748Z,56.85
2016-09-18T12:40:33.404Z,56.27
2016-09-18T12:41:34.057Z,56.44
2016-09-18T12:42:34.721Z,56.53
2016-09-18T12:43:35.386Z,56.44
2016-09-18T12:44:36.065Z,55.77
2016-09-18T12:45:36.738Z,55.57
2016-09-18T12:46:37.393Z,56.15
2016-09-18T12:47:38.071Z,56.73
2016-09-18T12:48:38.734Z,57.21
2016-09-18T12:49:39.408Z,56.73
2016-09-18T12:50:40.059Z,56.63
2016-09-18T12:51:40.725Z,56.73
2016-09-18T12:52:41.404Z,57.11
2016-09-18T12:53:42.104Z,57.4
2016-09-18T12:54:42.772Z,57.68
2016-09-18T12:55:43.438Z,57.5
2016-09-18T12:56:44.081Z,57.5
2016-09-18T12:57:44.756Z,58.07
2016-09-18T12:58:45.419Z,58.26
2016-09-18T12:59:46.075Z,57.97
2016-09-18T13:00:46.744Z,58.17
2016-09-18T13:01:47.403Z,58.26
2016-09-18T13:02:48.069Z,57.78
2016-09-18T13:03:48.734Z,57.97